createdAt,value
2016-10-01T00:00:57.309Z,0
2016-10-01T00:01:57.825Z,0
2016-10-01T00:02:58.325Z,0
2016-10-01T00:03:58.983Z,0
2016-10-01T00:04:59.655Z,0
2016-10-01T00:05:59.866Z,0
2016-10-01T00:07:00.378Z,0
2016-10-01T00:08:00.890Z,0
2016-10-01T00:09:01.402Z,0
2016-10-01T00:10:01.942Z,0
2016-10-01T00:11:02.448Z,0
2016-10-01T00:12:02.960Z,0
2016-10-01T00:13:03.440Z,0
2016-10-01T00:14:04.104Z,0
2016-10-01T00:15:04.469Z,0
2016-10-01T00:16:04.991Z,0
2016-10-01T00:17:05.512Z,0
2016-10-01T00:18:06.028Z,0
2016-10-01T00:19:06.536Z,0
2016-10-01T00:20:07.054Z,0
2016-10-01T00:21:07.719Z,0
2016-10-01T00:22:08.076Z,0
2016-10-01T00:23:09.342Z,0
2016-10-01T00:24:09.094Z,0
2016-10-01T00:25:09.613Z,0
2016-10-01T00:26:10.125Z,0
2016-10-01T00:27:10.631Z,0
2016-10-01T00:28:11.146Z,0
2016-10-01T00:29:11.826Z,0
2016-10-01T00:30:12.169Z,0
2016-10-01T00:31:12.682Z,0
2016-10-01T00:32:13.201Z,0
2016-10-01T00:33:13.711Z,0
2016-10-01T00:34:14.233Z,0
2016-10-01T00:35:14.738Z,0
2016-10-01T00:36:15.251Z,0
2016-10-01T00:37:15.759Z,0
2016-10-01T00:38:16.276Z,0
2016-10-01T00:39:16.786Z,0
2016-10-01T00:40:17.303Z,0
2016-10-01T00:41:18.567Z,0
2016-10-01T00:42:18.477Z,0
2016-10-01T00:43:18.840Z,0
2016-10-01T00:44:19.349Z,0
2016-10-01T00:45:20.016Z,0
2016-10-01T00:46:20.376Z,0
2016-10-01T00:47:20.897Z,0
2016-10-01T00:48:21.407Z,0
2016-10-01T00:49:21.914Z,0
2016-10-01T00:50:22.431Z,0
2016-10-01T00:51:22.938Z,0
2016-10-01T00:52:23.456Z,0
2016-10-01T00:53:24.120Z,0
2016-10-01T00:54:24.485Z,0
2016-10-01T00:55:25.150Z,0
2016-10-01T00:56:25.666Z,0
2016-10-01T00:57:26.185Z,0
2016-10-01T00:58:26.548Z,0
2016-10-01T00:59:27.065Z,0
2016-10-01T01:00:27.583Z,0
2016-10-01T01:01:28.123Z,0
2016-10-01T01:02:28.759Z,0
2016-10-01T01:03:29.296Z,0
2016-10-01T01:04:29.636Z,0
2016-10-01T01:05:30.147Z,0
2016-10-01T01:06:30.661Z,0
2016-10-01T01:07:31.170Z,0
2016-10-01T01:08:31.682Z,0
2016-10-01T01:09:32.196Z,0
2016-10-01T01:10:32.704Z,0
2016-10-01T01:11:34.872Z,0
2016-10-01T01:12:33.883Z,0
2016-10-01T01:13:34.397Z,0
2016-10-01T01:14:34.756Z,0
2016-10-01T01:15:35.262Z,0
2016-10-01T01:16:35.924Z,0
2016-10-01T01:17:36.283Z,0
2016-10-01T01:18:36.797Z,0
2016-10-01T01:19:37.312Z,0
2016-10-01T01:20:37.823Z,0
2016-10-01T01:21:38.331Z,0
2016-10-01T01:22:38.850Z,0
2016-10-01T01:23:39.358Z,0
2016-10-01T01:24:39.874Z,0
2016-10-01T01:25:40.533Z,0
2016-10-01T01:26:40.901Z,0
2016-10-01T01:27:41.416Z,0
2016-10-01T01:28:41.917Z,0
2016-10-01T01:29:42.584Z,0
2016-10-01T01:30:42.947Z,0
2016-10-01T01:31:43.464Z,0
2016-10-01T01:32:43.977Z,0
2016-10-01T01:33:44.485Z,0
2016-10-01T01:34:45.001Z,0
2016-10-01T01:35:45.510Z,0
2016-10-01T01:36:46.169Z,0
2016-10-01T01:37:46.683Z,0
2016-10-01T01:38:47.047Z,0
2016-10-01T01:39:47.559Z,0
2016-10-01T01:40:48.219Z,0
2016-10-01T01:41:48.583Z,0
2016-10-01T01:42:49.096Z,0
2016-10-01T01:43:49.606Z,0
2016-10-01T01:44:50.119Z,0
2016-10-01T01:45:50.632Z,0
2016-10-01T01:46:51.296Z,0
2016-10-01T01:47:51.655Z,0
2016-10-01T01:48:52.170Z,0
2016-10-01T01:49:52.681Z,0
2016-10-01T01:50:53.202Z,0
2016-10-01T01:51:53.713Z,0
2016-10-01T01:52:54.225Z,0
2016-10-01T01:53:54.883Z,0
2016-10-01T01:54:55.397Z,0
2016-10-01T01:55:55.755Z,0
2016-10-01T01:56:56.276Z,0
2016-10-01T01:57:56.779Z,0
2016-10-01T01:58:57.302Z,0
2016-10-01T01:59:59.483Z,0
2016-10-01T02:00:58.311Z,0
2016-10-01T02:01:58.831Z,0
2016-10-01T02:02:59.486Z,0
2016-10-01T02:03:59.854Z,0
2016-10-01T02:05:00.511Z,0
2016-10-01T02:06:00.876Z,0
2016-10-01T02:07:01.390Z,0
2016-10-01T02:08:01.930Z,0
2016-10-01T02:09:02.434Z,0
2016-10-01T02:10:02.943Z,0
2016-10-01T02:11:03.477Z,0
2016-10-01T02:12:04.123Z,0
2016-10-01T02:13:04.484Z,0
2016-10-01T02:14:05.146Z,0
2016-10-01T02:15:05.655Z,0
2016-10-01T02:16:06.021Z,0
2016-10-01T02:17:06.534Z,0
2016-10-01T02:18:07.950Z,0
2016-10-01T02:19:07.558Z,0
2016-10-01T02:20:08.066Z,0
2016-10-01T02:21:08.587Z,0
2016-10-01T02:22:09.098Z,0
2016-10-01T02:23:09.759Z,0
2016-10-01T02:24:10.121Z,0
2016-10-01T02:25:10.639Z,0
2016-10-01T02:26:11.152Z,0
2016-10-01T02:27:11.664Z,0
2016-10-01T02:28:12.323Z,0
2016-10-01T02:29:12.833Z,0
2016-10-01T02:30:13.203Z,0
2016-10-01T02:31:13.717Z,0
2016-10-01T02:32:14.227Z,0
2016-10-01T02:33:14.894Z,0
2016-10-01T02:34:15.253Z,0
2016-10-01T02:35:15.763Z,0
2016-10-01T02:36:16.275Z,0
2016-10-01T02:37:16.788Z,0
2016-10-01T02:38:17.301Z,0
2016-10-01T02:39:17.816Z,0
2016-10-01T02:40:18.328Z,0
2016-10-01T02:41:18.864Z,0
2016-10-01T02:42:19.664Z,0
2016-10-01T02:43:19.866Z,0
2016-10-01T02:44:20.382Z,0
2016-10-01T02:45:20.897Z,0
2016-10-01T02:46:21.570Z,0
2016-10-01T02:47:21.936Z,0
2016-10-01T02:48:24.246Z,0
2016-10-01T02:49:22.955Z,0
2016-10-01T02:50:23.613Z,0
2016-10-01T02:51:23.972Z,0
2016-10-01T02:52:24.637Z,0
2016-10-01T02:53:24.999Z,0
2016-10-01T02:54:25.516Z,0
2016-10-01T02:55:26.018Z,0
2016-10-01T02:56:26.531Z,0
2016-10-01T02:57:27.043Z,0
2016-10-01T02:58:27.550Z,0
2016-10-01T02:59:28.064Z,0
2016-10-01T03:00:28.572Z,0
2016-10-01T03:01:29.090Z,0
2016-10-01T03:02:29.596Z,0
2016-10-01T03:03:30.280Z,0
2016-10-01T03:04:30.647Z,0
2016-10-01T03:05:32.941Z,0
2016-10-01T03:06:31.661Z,0
2016-10-01T03:07:32.319Z,0
2016-10-01T03:08:32.667Z,0
2016-10-01T03:09:33.181Z,0
2016-10-01T03:10:33.689Z,0
2016-10-01T03:11:34.202Z,0
2016-10-01T03:12:34.866Z,0
2016-10-01T03:13:35.529Z,0
2016-10-01T03:14:35.736Z,0
2016-10-01T03:15:36.254Z,0
2016-10-01T03:16:36.911Z,0
2016-10-01T03:17:37.423Z,0
2016-10-01T03:18:37.783Z,0
2016-10-01T03:19:38.297Z,0
2016-10-01T03:20:38.818Z,0
2016-10-01T03:21:39.321Z,0
2016-10-01T03:22:39.837Z,0
2016-10-01T03:23:40.357Z,0
2016-10-01T03:24:40.874Z,0
2016-10-01T03:25:41.390Z,0
2016-10-01T03:26:41.899Z,0
2016-10-01T03:27:42.414Z,0
2016-10-01T03:28:42.924Z,0
2016-10-01T03:29:43.444Z,0
2016-10-01T03:30:43.957Z,0
2016-10-01T03:31:44.472Z,0
2016-10-01T03:32:44.976Z,0
2016-10-01T03:33:45.645Z,0
2016-10-01T03:34:46.149Z,0
2016-10-01T03:35:48.307Z,0
2016-10-01T03:36:47.015Z,0
2016-10-01T03:37:47.531Z,0
2016-10-01T03:38:48.039Z,0
2016-10-01T03:39:48.557Z,0
2016-10-01T03:40:49.075Z,0
2016-10-01T03:41:49.746Z,0
2016-10-01T03:42:50.088Z,0
2016-10-01T03:43:50.613Z,0
2016-10-01T03:44:51.118Z,0
2016-10-01T03:45:51.635Z,0
2016-10-01T03:46:52.145Z,0
2016-10-01T03:47:52.659Z,0
2016-10-01T03:48:53.180Z,0
2016-10-01T03:49:53.688Z,0
2016-10-01T03:50:54.669Z,0
2016-10-01T03:51:54.715Z,0
2016-10-01T03:52:55.225Z,0
2016-10-01T03:53:55.741Z,0
2016-10-01T03:54:56.252Z,0
2016-10-01T03:55:56.766Z,0
2016-10-01T03:56:57.428Z,0
2016-10-01T03:57:57.793Z,0
2016-10-01T03:58:58.310Z,0
2016-10-01T03:59:58.829Z,0
2016-10-01T04:00:59.341Z,0
2016-10-01T04:01:59.858Z,0
2016-10-01T04:03:00.363Z,0
2016-10-01T04:04:00.880Z,0
2016-10-01T04:05:01.389Z,0
2016-10-01T04:06:02.053Z,0
2016-10-01T04:07:02.414Z,0
2016-10-01T04:08:02.926Z,0
2016-10-01T04:09:03.466Z,0
2016-10-01T04:10:03.946Z,0
2016-10-01T04:11:04.457Z,0
2016-10-01T04:12:04.970Z,0
2016-10-01T04:13:05.485Z,0
2016-10-01T04:14:05.988Z,0
2016-10-01T04:15:06.641Z,0
2016-10-01T04:16:07.005Z,0
2016-10-01T04:17:07.520Z,0
2016-10-01T04:18:08.216Z,0
2016-10-01T04:19:08.713Z,0
2016-10-01T04:20:09.054Z,0
2016-10-01T04:21:09.565Z,0
2016-10-01T04:22:10.079Z,0
2016-10-01T04:23:10.601Z,0
2016-10-01T04:24:12.301Z,0
2016-10-01T04:25:11.606Z,0
2016-10-01T04:26:12.122Z,0
2016-10-01T04:27:12.780Z,0
2016-10-01T04:28:13.141Z,0
2016-10-01T04:29:13.652Z,0
2016-10-01T04:30:14.164Z,0
2016-10-01T04:31:14.684Z,0
2016-10-01T04:32:15.186Z,0
2016-10-01T04:33:15.850Z,0
2016-10-01T04:34:16.213Z,0
2016-10-01T04:35:16.727Z,0
2016-10-01T04:36:17.244Z,0
2016-10-01T04:37:18.063Z,0
2016-10-01T04:38:18.273Z,0
2016-10-01T04:39:18.800Z,0
2016-10-01T04:40:19.301Z,0
2016-10-01T04:41:20.712Z,0
2016-10-01T04:42:20.326Z,0
2016-10-01T04:43:20.841Z,0
2016-10-01T04:44:21.354Z,0
2016-10-01T04:45:21.864Z,0
2016-10-01T04:46:22.379Z,0
2016-10-01T04:47:22.898Z,0
2016-10-01T04:48:23.555Z,0
2016-10-01T04:49:24.067Z,0
2016-10-01T04:50:24.432Z,0
2016-10-01T04:51:25.095Z,0
2016-10-01T04:52:25.605Z,0
2016-10-01T04:53:26.716Z,0
2016-10-01T04:54:26.481Z,0
2016-10-01T04:55:26.986Z,0
2016-10-01T04:56:27.505Z,0
2016-10-01T04:57:28.012Z,0
2016-10-01T04:58:28.676Z,0
2016-10-01T04:59:29.043Z,0
2016-10-01T05:00:29.701Z,0
2016-10-01T05:01:30.065Z,0
2016-10-01T05:02:30.578Z,0
2016-10-01T05:03:31.092Z,0
2016-10-01T05:04:31.606Z,0
2016-10-01T05:05:32.113Z,0
2016-10-01T05:06:32.774Z,0
2016-10-01T05:07:33.292Z,0
2016-10-01T05:08:33.652Z,0
2016-10-01T05:09:34.163Z,0
2016-10-01T05:10:34.682Z,0
2016-10-01T05:11:35.196Z,0
2016-10-01T05:12:35.725Z,0
2016-10-01T05:13:36.266Z,0
2016-10-01T05:14:36.900Z,0
2016-10-01T05:15:37.276Z,0
2016-10-01T05:16:37.928Z,0
2016-10-01T05:17:38.290Z,0
2016-10-01T05:18:38.955Z,0
2016-10-01T05:19:39.323Z,0
2016-10-01T05:20:39.831Z,0
2016-10-01T05:21:40.337Z,0
2016-10-01T05:22:41.004Z,0
2016-10-01T05:23:41.515Z,0
2016-10-01T05:24:41.880Z,0
2016-10-01T05:25:43.889Z,0
2016-10-01T05:26:42.903Z,0
2016-10-01T05:27:43.412Z,0
2016-10-01T05:28:43.922Z,0
2016-10-01T05:29:44.433Z,0
2016-10-01T05:30:44.948Z,0
2016-10-01T05:31:45.457Z,0
2016-10-01T05:32:45.970Z,0
2016-10-01T05:33:46.485Z,0
2016-10-01T05:34:46.992Z,0
2016-10-01T05:35:47.507Z,0
2016-10-01T05:36:48.166Z,0
2016-10-01T05:37:48.547Z,0
2016-10-01T05:38:49.045Z,0
2016-10-01T05:39:49.565Z,0
2016-10-01T05:40:50.220Z,0
2016-10-01T05:41:50.731Z,0
2016-10-01T05:42:51.239Z,0
2016-10-01T05:43:51.595Z,0
2016-10-01T05:44:52.110Z,0
2016-10-01T05:45:52.621Z,0
2016-10-01T05:46:53.285Z,0
2016-10-01T05:47:53.641Z,0
2016-10-01T05:48:54.160Z,0
2016-10-01T05:49:54.821Z,0
2016-10-01T05:50:55.190Z,0
2016-10-01T05:51:55.713Z,0
2016-10-01T05:52:56.221Z,0
2016-10-01T05:53:56.737Z,0
2016-10-01T05:54:57.249Z,0
2016-10-01T05:55:58.100Z,0
2016-10-01T05:56:58.313Z,0
2016-10-01T05:57:58.779Z,0
2016-10-01T05:58:59.294Z,0
2016-10-01T05:59:59.808Z,0
2016-10-01T06:01:00.463Z,0
2016-10-01T06:02:00.826Z,0
2016-10-01T06:03:01.341Z,0
2016-10-01T06:04:01.854Z,0
2016-10-01T06:05:02.368Z,0
2016-10-01T06:06:03.040Z,0
2016-10-01T06:07:03.393Z,0
2016-10-01T06:08:03.934Z,0
2016-10-01T06:09:04.419Z,0
2016-10-01T06:10:04.936Z,0
2016-10-01T06:11:07.245Z,0
2016-10-01T06:12:05.955Z,0
2016-10-01T06:13:06.466Z,0
2016-10-01T06:14:06.980Z,0
2016-10-01T06:15:07.491Z,0
2016-10-01T06:16:08.154Z,0
2016-10-01T06:17:08.517Z,0
2016-10-01T06:18:09.045Z,0
2016-10-01T06:19:09.537Z,0
2016-10-01T06:20:10.072Z,0
2016-10-01T06:21:10.590Z,0
2016-10-01T06:22:11.089Z,0
2016-10-01T06:23:11.888Z,0
2016-10-01T06:24:12.099Z,0
2016-10-01T06:25:12.610Z,0
2016-10-01T06:26:13.119Z,0
2016-10-01T06:27:13.938Z,0
2016-10-01T06:28:14.315Z,0
2016-10-01T06:29:14.671Z,0
2016-10-01T06:30:15.188Z,0
2016-10-01T06:31:15.703Z,0
2016-10-01T06:32:16.218Z,0
2016-10-01T06:33:16.728Z,0
2016-10-01T06:34:17.244Z,0
2016-10-01T06:35:17.757Z,0
2016-10-01T06:36:18.274Z,0
2016-10-01T06:37:18.782Z,0
2016-10-01T06:38:19.296Z,0
2016-10-01T06:39:19.829Z,0
2016-10-01T06:40:20.317Z,0
2016-10-01T06:41:21.878Z,0
2016-10-01T06:42:21.490Z,0
2016-10-01T06:43:21.856Z,0
2016-10-01T06:44:22.509Z,0
2016-10-01T06:45:22.874Z,0
2016-10-01T06:46:23.383Z,0
2016-10-01T06:47:33.954Z,0
2016-10-01T06:48:24.418Z,0
2016-10-01T06:49:24.926Z,0
2016-10-01T06:50:25.446Z,0
2016-10-01T06:51:26.116Z,0
2016-10-01T06:52:26.480Z,0
2016-10-01T06:53:26.997Z,0
2016-10-01T06:54:27.515Z,0
2016-10-01T06:55:28.032Z,0
2016-10-01T06:56:28.840Z,0
2016-10-01T06:57:29.203Z,0
2016-10-01T06:58:29.568Z,0
2016-10-01T06:59:30.082Z,0
2016-10-01T07:00:30.587Z,0
2016-10-01T07:01:31.101Z,0
2016-10-01T07:02:31.630Z,0
2016-10-01T07:03:32.130Z,0
2016-10-01T07:04:32.638Z,0
2016-10-01T07:05:33.154Z,0
2016-10-01T07:06:33.671Z,19
2016-10-01T07:07:34.186Z,21
2016-10-01T07:08:34.697Z,24
2016-10-01T07:09:35.359Z,24
2016-10-01T07:10:35.720Z,27
2016-10-01T07:11:36.232Z,30
2016-10-01T07:12:36.745Z,30
2016-10-01T07:13:37.256Z,28
2016-10-01T07:14:37.782Z,27
2016-10-01T07:15:38.438Z,27
2016-10-01T07:16:38.800Z,27
2016-10-01T07:17:39.312Z,27
2016-10-01T07:18:39.829Z,26
2016-10-01T07:19:40.349Z,23
2016-10-01T07:20:40.849Z,21
2016-10-01T07:21:41.365Z,23
2016-10-01T07:22:41.877Z,25
2016-10-01T07:23:42.537Z,25
2016-10-01T07:24:43.061Z,26
2016-10-01T07:25:43.414Z,25
2016-10-01T07:26:44.073Z,24
2016-10-01T07:27:44.437Z,23
2016-10-01T07:28:45.094Z,23
2016-10-01T07:29:45.459Z,23
2016-10-01T07:30:45.971Z,22
2016-10-01T07:31:46.482Z,21
2016-10-01T07:32:46.988Z,21
2016-10-01T07:33:47.652Z,21
2016-10-01T07:34:48.015Z,22
2016-10-01T07:35:48.535Z,22
2016-10-01T07:36:49.041Z,24
2016-10-01T07:37:49.699Z,25
2016-10-01T07:38:50.059Z,26
2016-10-01T07:39:50.569Z,27
2016-10-01T07:40:51.234Z,28
2016-10-01T07:41:52.500Z,31
2016-10-01T07:42:52.121Z,33
2016-10-01T07:43:52.788Z,35
2016-10-01T07:44:53.155Z,36
2016-10-01T07:45:53.666Z,40
2016-10-01T07:46:54.177Z,44
2016-10-01T07:47:54.689Z,45
2016-10-01T07:48:55.801Z,45
2016-10-01T07:49:55.866Z,43
2016-10-01T07:50:56.381Z,44
2016-10-01T07:51:56.744Z,44
2016-10-01T07:52:57.258Z,44
2016-10-01T07:53:57.764Z,44
2016-10-01T07:54:58.423Z,45
2016-10-01T07:55:58.937Z,47
2016-10-01T07:56:59.302Z,50
2016-10-01T07:57:59.816Z,53
2016-10-01T07:59:00.328Z,56
2016-10-01T08:00:00.989Z,59
2016-10-01T08:01:01.385Z,62
2016-10-01T08:02:01.866Z,64
2016-10-01T08:03:02.378Z,66
2016-10-01T08:04:02.891Z,65
2016-10-01T08:05:03.406Z,64
2016-10-01T08:06:03.939Z,64
2016-10-01T08:07:04.431Z,65
2016-10-01T08:08:04.943Z,67
2016-10-01T08:09:05.471Z,69
2016-10-01T08:10:05.972Z,71
2016-10-01T08:11:06.478Z,78
2016-10-01T08:12:08.790Z,88
2016-10-01T08:13:07.505Z,90
2016-10-01T08:14:08.012Z,81
2016-10-01T08:15:08.522Z,71
2016-10-01T08:16:09.037Z,73
2016-10-01T08:17:09.581Z,72
2016-10-01T08:18:10.224Z,62
2016-10-01T08:19:10.586Z,52
2016-10-01T08:20:11.254Z,50
2016-10-01T08:21:11.621Z,49
2016-10-01T08:22:12.128Z,49
2016-10-01T08:23:12.639Z,50
2016-10-01T08:24:13.156Z,52
2016-10-01T08:25:13.663Z,55
2016-10-01T08:26:14.327Z,57
2016-10-01T08:27:16.342Z,59
2016-10-01T08:28:15.348Z,59
2016-10-01T08:29:15.705Z,59
2016-10-01T08:30:16.367Z,57
2016-10-01T08:31:16.732Z,54
2016-10-01T08:32:17.235Z,49
2016-10-01T08:33:17.905Z,50
2016-10-01T08:34:18.258Z,49
2016-10-01T08:35:18.922Z,50
2016-10-01T08:36:19.287Z,49
2016-10-01T08:37:19.795Z,47
2016-10-01T08:38:20.457Z,45
2016-10-01T08:39:20.839Z,42
2016-10-01T08:40:21.333Z,42
2016-10-01T08:41:21.993Z,44
2016-10-01T08:42:22.357Z,46
2016-10-01T08:43:23.022Z,47
2016-10-01T08:44:23.378Z,47
2016-10-01T08:45:24.045Z,47
2016-10-01T08:46:24.403Z,47
2016-10-01T08:47:24.916Z,50
2016-10-01T08:48:25.427Z,51
2016-10-01T08:49:25.938Z,53
2016-10-01T08:50:26.452Z,50
2016-10-01T08:51:26.957Z,49
2016-10-01T08:52:27.620Z,49
2016-10-01T08:53:27.986Z,51
2016-10-01T08:54:28.498Z,54
2016-10-01T08:55:29.006Z,55
2016-10-01T08:56:29.526Z,55
2016-10-01T08:57:30.940Z,54
2016-10-01T08:58:30.560Z,53
2016-10-01T08:59:31.070Z,54
2016-10-01T09:00:31.911Z,53
2016-10-01T09:01:32.256Z,51
2016-10-01T09:02:32.611Z,50
2016-10-01T09:03:33.124Z,51
2016-10-01T09:04:33.635Z,52
2016-10-01T09:05:34.146Z,52
2016-10-01T09:06:34.657Z,49
2016-10-01T09:07:35.170Z,47
2016-10-01T09:08:35.683Z,46
2016-10-01T09:09:36.344Z,48
2016-10-01T09:10:36.706Z,50
2016-10-01T09:11:37.217Z,48
2016-10-01T09:12:37.732Z,45
2016-10-01T09:13:38.241Z,46
2016-10-01T09:14:38.902Z,50
2016-10-01T09:15:39.263Z,52
2016-10-01T09:16:39.779Z,52
2016-10-01T09:17:40.440Z,52
2016-10-01T09:18:40.949Z,50
2016-10-01T09:19:41.609Z,49
2016-10-01T09:20:41.850Z,48
2016-10-01T09:21:42.337Z,47
2016-10-01T09:22:42.860Z,46
2016-10-01T09:23:43.358Z,43
2016-10-01T09:24:44.044Z,42
2016-10-01T09:25:44.387Z,41
2016-10-01T09:26:44.903Z,42
2016-10-01T09:27:45.582Z,45
2016-10-01T09:28:46.234Z,48
2016-10-01T09:29:46.453Z,47
2016-10-01T09:30:46.984Z,46
2016-10-01T09:31:47.495Z,45
2016-10-01T09:32:47.988Z,45
2016-10-01T09:33:48.656Z,46
2016-10-01T09:34:49.019Z,46
2016-10-01T09:35:49.531Z,48
2016-10-01T09:36:50.194Z,48
2016-10-01T09:37:50.709Z,47
2016-10-01T09:38:51.218Z,47
2016-10-01T09:39:51.581Z,48
2016-10-01T09:40:52.093Z,50
2016-10-01T09:41:52.760Z,48
2016-10-01T09:42:53.117Z,45
2016-10-01T09:43:53.627Z,44
2016-10-01T09:44:54.138Z,41
2016-10-01T09:45:54.799Z,40
2016-10-01T09:46:55.158Z,41
2016-10-01T09:47:55.665Z,43
2016-10-01T09:48:56.183Z,42
2016-10-01T09:49:56.690Z,41
2016-10-01T09:50:57.364Z,41
2016-10-01T09:51:57.730Z,42
2016-10-01T09:52:58.231Z,48
2016-10-01T09:53:58.737Z,49
2016-10-01T09:54:59.401Z,47
2016-10-01T09:55:59.918Z,42
2016-10-01T09:57:00.283Z,40
2016-10-01T09:58:00.797Z,37
2016-10-01T09:59:03.246Z,36
2016-10-01T10:00:01.813Z,37
2016-10-01T10:01:02.317Z,38
2016-10-01T10:02:02.903Z,40
2016-10-01T10:03:03.487Z,42
2016-10-01T10:04:03.855Z,42
2016-10-01T10:05:04.512Z,42
2016-10-01T10:06:05.029Z,40
2016-10-01T10:07:05.389Z,37
2016-10-01T10:08:05.897Z,36
2016-10-01T10:09:06.411Z,37
2016-10-01T10:10:06.924Z,35
2016-10-01T10:11:07.593Z,33
2016-10-01T10:12:07.959Z,32
2016-10-01T10:13:08.474Z,32
2016-10-01T10:14:08.989Z,32
2016-10-01T10:15:09.653Z,33
2016-10-01T10:16:10.028Z,35
2016-10-01T10:17:10.517Z,40
2016-10-01T10:18:11.024Z,44
2016-10-01T10:19:11.542Z,50
2016-10-01T10:20:12.055Z,53
2016-10-01T10:21:12.722Z,52
2016-10-01T10:22:13.235Z,49
2016-10-01T10:23:13.748Z,46
2016-10-01T10:24:14.113Z,44
2016-10-01T10:25:14.624Z,46
2016-10-01T10:26:15.134Z,49
2016-10-01T10:27:15.648Z,56
2016-10-01T10:28:16.158Z,67
2016-10-01T10:29:17.567Z,73
2016-10-01T10:30:17.332Z,71
2016-10-01T10:31:17.692Z,68
2016-10-01T10:32:18.202Z,71
2016-10-01T10:33:18.716Z,75
2016-10-01T10:34:19.374Z,78
2016-10-01T10:35:19.733Z,84
2016-10-01T10:36:20.255Z,89
2016-10-01T10:37:20.759Z,92
2016-10-01T10:38:21.276Z,89
2016-10-01T10:39:21.779Z,87
2016-10-01T10:40:22.287Z,93
2016-10-01T10:41:22.800Z,101
2016-10-01T10:42:23.309Z,108
2016-10-01T10:43:23.825Z,116
2016-10-01T10:44:24.362Z,110
2016-10-01T10:45:24.994Z,116
2016-10-01T10:46:25.364Z,116
2016-10-01T10:47:26.180Z,117
2016-10-01T10:48:26.398Z,124
2016-10-01T10:49:27.069Z,137
2016-10-01T10:50:27.589Z,144
2016-10-01T10:51:27.950Z,153
2016-10-01T10:52:28.461Z,160
2016-10-01T10:53:28.975Z,161
2016-10-01T10:54:29.642Z,158
2016-10-01T10:55:29.992Z,161
2016-10-01T10:56:30.509Z,161
2016-10-01T10:57:31.021Z,158
2016-10-01T10:58:31.536Z,149
2016-10-01T10:59:32.199Z,144
2016-10-01T11:00:32.559Z,144
2016-10-01T11:01:33.221Z,146
2016-10-01T11:02:33.582Z,150
2016-10-01T11:03:34.092Z,154
2016-10-01T11:04:34.610Z,163
2016-10-01T11:05:35.119Z,172
2016-10-01T11:06:35.636Z,190
2016-10-01T11:07:36.289Z,208
2016-10-01T11:08:36.654Z,212
2016-10-01T11:09:37.338Z,213
2016-10-01T11:10:37.695Z,221
2016-10-01T11:11:38.192Z,222
2016-10-01T11:12:38.701Z,220
2016-10-01T11:13:39.366Z,219
2016-10-01T11:14:39.726Z,217
2016-10-01T11:15:40.240Z,215
2016-10-01T11:16:41.502Z,213
2016-10-01T11:17:31.710Z,900
2016-10-01T11:17:41.267Z,204
2016-10-01T11:17:47.689Z,900
2016-10-01T11:18:03.810Z,900
2016-10-01T11:18:19.776Z,900
2016-10-01T11:18:35.830Z,900
2016-10-01T11:18:41.927Z,198
2016-10-01T11:18:51.799Z,900
2016-10-01T11:19:07.828Z,900
2016-10-01T11:19:23.827Z,900
2016-10-01T11:19:39.860Z,900
2016-10-01T11:19:42.283Z,194
2016-10-01T11:19:55.909Z,900
2016-10-01T11:20:11.933Z,900
2016-10-01T11:20:27.951Z,900
2016-10-01T11:20:42.794Z,210
2016-10-01T11:20:44.044Z,900
2016-10-01T11:20:59.959Z,900
2016-10-01T11:21:16.004Z,900
2016-10-01T11:21:32.048Z,900
2016-10-01T11:21:43.309Z,189
2016-10-01T11:21:48.051Z,900
2016-10-01T11:22:04.099Z,900
2016-10-01T11:22:20.078Z,900
2016-10-01T11:22:36.161Z,900
2016-10-01T11:22:43.964Z,162
2016-10-01T11:22:52.133Z,900
2016-10-01T11:23:44.324Z,151
2016-10-01T11:24:44.836Z,137
2016-10-01T11:25:45.361Z,125
2016-10-01T11:26:45.874Z,117
2016-10-01T11:27:46.400Z,125
2016-10-01T11:28:47.045Z,138
2016-10-01T11:29:47.409Z,139
2016-10-01T11:30:47.918Z,136
2016-10-01T11:31:48.430Z,128
2016-10-01T11:32:49.089Z,113
2016-10-01T11:33:49.449Z,97
2016-10-01T11:34:51.312Z,88
2016-10-01T11:35:50.477Z,88
2016-10-01T11:36:50.977Z,99
2016-10-01T11:37:51.490Z,109
2016-10-01T11:38:52.144Z,113
2016-10-01T11:39:52.513Z,111
2016-10-01T11:40:53.023Z,104
2016-10-01T11:41:53.535Z,104
2016-10-01T11:42:54.049Z,116
2016-10-01T11:43:54.559Z,110
2016-10-01T11:44:55.078Z,126
2016-10-01T11:45:55.590Z,124
2016-10-01T11:46:56.100Z,107
2016-10-01T11:47:56.768Z,84
2016-10-01T11:48:57.141Z,66
2016-10-01T11:49:57.634Z,65
2016-10-01T11:50:58.146Z,74
2016-10-01T11:51:58.657Z,91
2016-10-01T11:52:59.318Z,104
2016-10-01T11:53:59.681Z,106
2016-10-01T11:55:00.194Z,110
2016-10-01T11:56:00.854Z,121
2016-10-01T11:57:01.215Z,115
2016-10-01T11:58:01.730Z,142
2016-10-01T11:59:02.247Z,157
2016-10-01T12:00:02.754Z,163
2016-10-01T12:01:03.423Z,162
2016-10-01T12:02:03.785Z,167
2016-10-01T12:03:04.300Z,179
2016-10-01T12:04:04.815Z,189
2016-10-01T12:05:05.476Z,181
2016-10-01T12:06:05.838Z,158
2016-10-01T12:07:06.497Z,139
2016-10-01T12:08:06.861Z,131
2016-10-01T12:09:07.378Z,131
2016-10-01T12:10:07.892Z,136
2016-10-01T12:11:08.405Z,141
2016-10-01T12:12:08.927Z,156
2016-10-01T12:13:09.585Z,171
2016-10-01T12:14:09.947Z,180
2016-10-01T12:15:10.466Z,190
2016-10-01T12:16:11.123Z,194
2016-10-01T12:17:11.481Z,193
2016-10-01T12:18:11.991Z,187
2016-10-01T12:19:12.496Z,185
2016-10-01T12:20:13.010Z,183
2016-10-01T12:21:13.521Z,174
2016-10-01T12:22:14.033Z,164
2016-10-01T12:23:14.696Z,156
2016-10-01T12:24:15.206Z,150
2016-10-01T12:25:15.567Z,149
2016-10-01T12:26:16.091Z,147
2016-10-01T12:27:16.588Z,146
2016-10-01T12:28:17.099Z,153
2016-10-01T12:29:17.762Z,160
2016-10-01T12:30:18.282Z,165
2016-10-01T12:31:18.640Z,164
2016-10-01T12:32:19.211Z,154
2016-10-01T12:33:19.821Z,151
2016-10-01T12:34:20.185Z,152
2016-10-01T12:35:20.697Z,154
2016-10-01T12:36:21.214Z,159
2016-10-01T12:37:21.728Z,166
2016-10-01T12:38:22.250Z,172
2016-10-01T12:39:22.764Z,173
2016-10-01T12:40:23.458Z,166
2016-10-01T12:41:23.799Z,160
2016-10-01T12:42:24.333Z,168
2016-10-01T12:43:24.847Z,179
2016-10-01T12:44:25.632Z,186
2016-10-01T12:45:25.863Z,194
2016-10-01T12:46:26.357Z,198
2016-10-01T12:47:26.870Z,193
2016-10-01T12:48:27.381Z,189
2016-10-01T12:49:28.045Z,186
2016-10-01T12:50:28.407Z,187
2016-10-01T12:51:29.065Z,183
2016-10-01T12:52:29.453Z,172
2016-10-01T12:53:29.939Z,162
2016-10-01T12:54:30.477Z,164
2016-10-01T12:55:30.959Z,173
2016-10-01T12:56:31.474Z,180
2016-10-01T12:57:31.987Z,182
2016-10-01T12:58:32.648Z,184
2016-10-01T13:00:29.323Z,190
2016-10-01T13:01:34.039Z,190
2016-10-01T13:02:34.557Z,199
2016-10-01T13:03:35.062Z,203
2016-10-01T13:04:35.589Z,190
2016-10-01T13:05:36.090Z,172
2016-10-01T13:06:36.606Z,160
2016-10-01T13:07:38.915Z,155
2016-10-01T13:08:38.070Z,163
2016-10-01T13:09:38.145Z,167
2016-10-01T13:10:38.659Z,165
2016-10-01T13:11:39.175Z,165
2016-10-01T13:12:39.684Z,166
2016-10-01T13:13:40.196Z,165
2016-10-01T13:14:40.712Z,167
2016-10-01T13:15:41.232Z,180
2016-10-01T13:16:41.740Z,187
2016-10-01T13:17:42.413Z,192
2016-10-01T13:18:42.775Z,197
2016-10-01T13:19:43.440Z,204
2016-10-01T13:20:43.800Z,216
2016-10-01T13:21:44.316Z,230
2016-10-01T13:22:44.979Z,245
2016-10-01T13:23:45.334Z,241
2016-10-01T13:24:45.863Z,232
2016-10-01T13:25:46.508Z,223
2016-10-01T13:26:47.020Z,224
2016-10-01T13:27:47.388Z,226
2016-10-01T13:28:48.046Z,257
2016-10-01T13:29:48.402Z,297
2016-10-01T13:30:48.915Z,308
2016-10-01T13:31:49.427Z,319
2016-10-01T13:32:49.951Z,312
2016-10-01T13:33:50.456Z,293
2016-10-01T13:34:50.971Z,291
2016-10-01T13:35:51.475Z,274
2016-10-01T13:36:52.292Z,243
2016-10-01T13:37:54.150Z,227
2016-10-01T13:38:53.018Z,213
2016-10-01T13:39:53.668Z,212
2016-10-01T13:40:54.181Z,204
2016-10-01T13:41:54.557Z,180
2016-10-01T13:42:55.202Z,147
2016-10-01T13:43:55.571Z,125
2016-10-01T13:44:56.076Z,110
2016-10-01T13:45:56.591Z,104
2016-10-01T13:46:57.098Z,110
2016-10-01T13:47:57.921Z,113
2016-10-01T13:48:58.118Z,115
2016-10-01T13:49:58.635Z,120
2016-10-01T13:50:59.145Z,125
2016-10-01T13:51:59.805Z,125
2016-10-01T13:53:01.969Z,123
2016-10-01T13:54:01.426Z,124
2016-10-01T13:55:01.191Z,125
2016-10-01T13:56:01.706Z,136
2016-10-01T13:57:02.229Z,142
2016-10-01T13:58:02.893Z,146
2016-10-01T13:59:03.258Z,143
2016-10-01T14:00:03.774Z,136
2016-10-01T14:01:04.283Z,126
2016-10-01T14:02:04.799Z,113
2016-10-01T14:03:05.306Z,102
2016-10-01T14:04:05.823Z,116
2016-10-01T14:05:06.334Z,113
2016-10-01T14:06:06.992Z,129
2016-10-01T14:07:07.498Z,117
2016-10-01T14:08:08.011Z,118
2016-10-01T14:09:08.381Z,118
2016-10-01T14:10:08.886Z,112